Time;durP1;ratioP1;P1;durP2;ratioP2;P2;SDS_P1;SDS_P2;PMS_P1;PMS_P2;Temp;Humidity;BMP_temperature;BMP_pressure;BME280_temperature;BME280_humidity;BME280_pressure;Samples;Min_cycle;Max_cycle;Signal;HPM_P1;HPM_P2
2023/04/29 00:00:52;;;;;;;;;15.00;13.33;;;;;19.89;67.28;100262.13;5062110;28;45292;-78
2023/04/29 00:03:18;;;;;;;;;13.67;12.67;;;;;19.74;66.92;100257.91;5063447;28;45360;-75
2023/04/29 00:05:44;;;;;;;;;11.00;11.00;;;;;19.74;67.16;100253.50;5062326;28;45525;-77
2023/04/29 00:08:10;;;;;;;;;12.00;11.67;;;;;19.67;66.92;100242.03;5061836;28;45504;-78
2023/04/29 00:10:36;;;;;;;;;11.67;10.67;;;;;19.66;66.92;100250.88;5063398;28;45464;-74
2023/04/29 00:13:02;;;;;;;;;9.33;9.00;;;;;19.62;66.93;100257.13;5063503;28;45403;-71
2023/04/29 00:15:28;;;;;;;;;13.00;11.33;;;;;19.61;67.01;100258.00;5063743;28;45307;-73
2023/04/29 00:17:53;;;;;;;;;14.67;12.00;;;;;19.56;67.91;100248.38;5061996;28;45398;-77
2023/04/29 00:20:19;;;;;;;;;13.33;12.00;;;;;19.54;68.30;100250.16;5063384;28;45720;-73
2023/04/29 00:22:44;;;;;;;;;11.67;10.67;;;;;19.60;67.94;100268.66;5063249;28;45372;-77
2023/04/29 00:25:10;;;;;;;;;11.33;10.33;;;;;19.53;67.77;100249.28;5063483;28;45568;-72
2023/04/29 00:27:36;;;;;;;;;12.33;10.33;;;;;19.43;68.08;100247.63;5063067;28;45552;-76
2023/04/29 00:30:02;;;;;;;;;14.67;12.00;;;;;19.42;68.86;100241.47;5061770;28;45454;-71
2023/04/29 00:32:28;;;;;;;;;13.33;11.00;;;;;19.46;68.89;100243.19;5063396;28;45368;-71
2023/04/29 00:34:54;;;;;;;;;13.67;12.00;;;;;19.53;68.15;100240.47;5063303;28;45303;-77
2023/04/29 00:37:20;;;;;;;;;11.33;11.33;;;;;19.46;68.50;100239.66;5062707;28;46508;-77
2023/04/29 00:39:46;;;;;;;;;13.33;11.33;;;;;19.51;68.45;100243.13;5061576;28;45332;-77
2023/04/29 00:42:11;;;;;;;;;11.00;10.67;;;;;19.50;68.08;100246.69;5061745;28;45602;-77
2023/04/29 00:44:37;;;;;;;;;11.67;11.33;;;;;19.48;68.20;100232.56;5063326;28;45156;-71
2023/04/29 00:47:03;;;;;;;;;9.33;7.33;;;;;19.37;68.15;100215.91;5061459;28;45508;-72
2023/04/29 00:49:28;;;;;;;;;11.00;10.00;;;;;19.51;68.32;100243.13;5063310;28;45562;-72
2023/04/29 00:51:56;;;;;;;;;10.67;7.67;;;;;19.56;68.14;100251.03;5058959;28;45287;-77
2023/04/29 00:54:22;;;;;;;;;8.67;8.00;;;;;19.53;68.15;100249.28;5059994;28;45286;-77
2023/04/29 00:56:49;;;;;;;;;7.67;7.67;;;;;19.44;67.96;100230.84;5059438;28;45587;-77
2023/04/29 00:59:16;;;;;;;;;8.67;8.00;;;;;19.39;68.56;100232.66;5059493;28;45318;-70
2023/04/29 01:01:41;;;;;;;;;9.00;8.00;;;;;19.26;68.47;100224.84;5059664;28;45342;-75
2023/04/29 01:04:07;;;;;;;;;9.00;7.33;;;;;19.26;68.49;100218.69;5058411;28;45589;-77
2023/04/29 01:06:48;;;;;;;;;7.00;7.00;;;;;19.33;68.47;100236.25;5059434;28;45324;-71
2023/04/29 01:09:33;;;;;;;;;10.33;7.00;;;;;19.28;68.61;100235.44;5059381;28;45245;-77
2023/04/29 01:12:07;;;;;;;;;9.00;9.00;;;;;19.28;68.43;100233.66;5059702;28;45344;-77
2023/04/29 01:14:34;;;;;;;;;7.67;7.67;;;;;19.09;68.65;100205.63;5059570;28;45505;-71
2023/04/29 01:17:08;;;;;;;;;6.00;6.00;;;;;19.27;68.57;100236.31;5059498;28;45380;-72
2023/04/29 01:19:55;;;;;;;;;6.33;5.67;;;;;19.26;68.90;100238.09;5058938;28;45404;-70
2023/04/29 01:22:21;;;;;;;;;6.33;6.00;;;;;19.15;69.21;100220.56;5057941;28;45235;-77
2023/04/29 01:24:50;;;;;;;;;6.00;6.00;;;;;19.07;69.60;100221.50;5059246;28;45301;-71
2023/04/29 01:27:30;;;;;;;;;7.67;6.00;;;;;19.21;69.17;100241.69;5057777;28;45370;-77
2023/04/29 01:30:21;;;;;;;;;7.00;5.33;;;;;18.98;69.95;100224.28;5058923;28;45370;-77
2023/04/29 01:32:58;;;;;;;;;7.67;6.00;;;;;19.14;69.83;100238.22;5058984;28;45511;-71
2023/04/29 01:35:33;;;;;;;;;6.67;6.00;;;;;19.14;69.75;100243.53;5059497;28;45298;-77
2023/04/29 01:38:28;;;;;;;;;7.00;6.33;;;;;19.17;69.66;100239.97;5059023;28;45866;-78
2023/04/29 01:41:30;;;;;;;;;6.33;5.33;;;;;19.18;69.07;100224.06;5053572;28;45826;-71
2023/04/29 01:43:59;;;;;;;;;6.67;6.00;;;;;19.21;69.07;100229.31;5046888;28;45480;-71
2023/04/29 01:46:26;;;;;;;;;6.33;5.67;;;;;19.21;68.95;100224.03;5059038;28;45305;-77
2023/04/29 01:48:53;;;;;;;;;7.00;6.00;;;;;19.21;68.95;100231.97;5058679;28;46080;-71
2023/04/29 01:51:19;;;;;;;;;7.00;6.00;;;;;19.15;69.11;100208.19;5058523;28;45251;-71
2023/04/29 01:53:44;;;;;;;;;6.00;6.00;;;;;19.13;68.95;100207.34;5058622;28;45560;-70
2023/04/29 01:56:10;;;;;;;;;6.33;6.00;;;;;19.10;69.08;100210.03;5058725;28;45298;-71
2023/04/29 01:58:35;;;;;;;;;8.33;6.00;;;;;19.11;69.26;100209.13;5058395;28;45456;-71
2023/04/29 02:01:01;;;;;;;;;6.00;6.00;;;;;19.14;68.74;100213.50;5058774;28;45333;-77
2023/04/29 02:03:26;;;;;;;;;12.00;7.33;;;;;19.14;68.98;100209.09;5057193;28;45476;-77
2023/04/29 02:05:52;;;;;;;;;7.00;7.00;;;;;19.10;68.83;100212.69;5058686;28;45364;-71
2023/04/29 02:08:17;;;;;;;;;6.00;6.00;;;;;19.03;69.40;100205.69;5058168;28;46153;-76
2023/04/29 02:10:57;;;;;;;;;7.00;5.00;;;;;18.99;69.78;100203.97;5056865;28;45270;-78
2023/04/29 02:13:22;;;;;;;;;7.00;6.00;;;;;18.99;69.82;100204.84;5058340;28;45206;-78
2023/04/29 02:15:48;;;;;;;;;7.33;7.33;;;;;19.06;69.36;100209.19;5057192;28;45495;-78
2023/04/29 02:18:14;;;;;;;;;7.00;7.00;;;;;19.09;69.43;100210.91;5058232;28;45583;-78
2023/04/29 02:20:40;;;;;;;;;6.00;6.00;;;;;19.18;70.01;100229.38;5058187;28;45354;-78
2023/04/29 02:23:06;;;;;;;;;8.33;6.00;;;;;19.10;69.51;100220.63;5058708;28;45426;-77
2023/04/29 02:25:31;;;;;;;;;8.00;7.00;;;;;19.06;69.45;100200.38;5057455;28;45536;-75
2023/04/29 02:27:57;;;;;;;;;6.00;6.00;;;;;19.08;69.47;100204.75;5058151;28;46283;-78
2023/04/29 02:30:22;;;;;;;;;6.00;5.33;;;;;19.11;69.43;100217.06;5058180;28;45264;-78
2023/04/29 02:32:48;;;;;;;;;5.33;5.00;;;;;19.17;69.17;100219.66;5056813;28;45298;-77
2023/04/29 02:35:13;;;;;;;;;5.33;4.67;;;;;19.14;69.25;100209.09;5058418;28;45327;-78
2023/04/29 02:37:39;;;;;;;;;4.67;4.00;;;;;19.07;69.42;100202.13;5057904;28;46459;-70
2023/04/29 02:40:06;;;;;;;;;4.00;4.00;;;;;19.00;69.13;100187.16;5058278;28;45175;-77
2023/04/29 02:42:31;;;;;;;;;5.67;4.67;;;;;18.99;69.89;100202.19;5058117;28;45258;-78
2023/04/29 02:44:57;;;;;;;;;7.00;6.33;;;;;18.87;70.20;100191.72;5058179;28;45313;-78
2023/04/29 02:47:22;;;;;;;;;5.00;4.00;;;;;18.96;70.18;100198.69;5057698;27;46128;-77
2023/04/29 02:49:48;;;;;;;;;6.33;5.00;;;;;18.77;70.92;100180.31;5057962;28;45570;-78
2023/04/29 02:52:15;;;;;;;;;7.33;6.00;;;;;18.84;70.42;100186.44;5057790;28;45208;-77
2023/04/29 02:54:41;;;;;;;;;4.67;4.67;;;;;18.80;70.09;100188.28;5058025;28;45426;-75
2023/04/29 02:57:06;;;;;;;;;4.67;4.67;;;;;18.70;70.71;100186.53;5057761;28;45395;-71
2023/04/29 02:59:32;;;;;;;;;7.00;6.00;;;;;18.55;71.24;100171.69;5057699;28;45480;-71
2023/04/29 03:01:58;;;;;;;;;6.00;6.00;;;;;18.64;71.53;100191.88;5057746;28;45366;-78
2023/04/29 03:04:24;;;;;;;;;6.00;6.00;;;;;18.66;71.32;100187.47;5058235;28;45531;-78
2023/04/29 03:06:50;;;;;;;;;5.33;4.33;;;;;18.72;70.95;100198.03;5072967;28;46667;-78
2023/04/29 03:09:15;;;;;;;;;7.00;6.00;;;;;18.61;70.93;100181.34;5056102;28;45537;-77
2023/04/29 03:11:41;;;;;;;;;5.67;5.00;;;;;18.71;70.75;100203.31;5056266;28;45509;-71
2023/04/29 03:14:06;;;;;;;;;6.00;5.00;;;;;18.68;70.52;100193.63;5056297;28;46040;-78
2023/04/29 03:16:32;;;;;;;;;8.00;6.67;;;;;18.76;70.77;100214.72;5057002;28;46277;-78
2023/04/29 03:18:57;;;;;;;;;5.00;5.00;;;;;18.68;70.64;100199.81;5057277;28;45465;-77
2023/04/29 03:21:25;;;;;;;;;5.00;5.00;;;;;18.66;70.68;100192.75;5057368;28;45203;-78
2023/04/29 03:23:50;;;;;;;;;8.67;5.67;;;;;18.58;70.84;100194.59;5057609;28;45519;-71
2023/04/29 03:26:16;;;;;;;;;7.33;6.00;;;;;18.59;71.21;100193.72;5057198;28;46017;-78
2023/04/29 03:28:41;;;;;;;;;7.67;6.67;;;;;18.51;71.50;100200.84;5057436;28;45496;-78
2023/04/29 03:31:07;;;;;;;;;4.33;4.33;;;;;18.51;71.08;100196.41;5057540;28;45351;-78
2023/04/29 03:33:32;;;;;;;;;3.33;3.33;;;;;18.56;71.16;100206.94;5057545;28;45429;-77
2023/04/29 03:35:58;;;;;;;;;5.00;4.33;;;;;18.53;71.23;100214.94;5056948;28;45500;-78
2023/04/29 03:38:24;;;;;;;;;7.00;5.00;;;;;18.56;71.39;100231.66;5057191;28;45446;-78
2023/04/29 03:40:50;;;;;;;;;4.33;4.33;;;;;18.54;71.27;100212.25;5057116;28;45481;-71
2023/04/29 03:43:16;;;;;;;;;5.33;3.67;;;;;18.57;71.19;100206.09;5057300;28;45514;-71
2023/04/29 03:45:42;;;;;;;;;6.33;5.00;;;;;18.38;72.02;100194.75;5056778;28;46213;-71
2023/04/29 03:48:08;;;;;;;;;4.33;3.67;;;;;18.40;71.75;100208.84;5057381;28;45217;-78
2023/04/29 03:50:35;;;;;;;;;4.00;3.00;;;;;18.38;71.35;100187.72;5055719;28;45527;-78
2023/04/29 03:53:01;;;;;;;;;3.33;3.00;;;;;18.52;71.36;100210.53;5055895;28;45477;-71
2023/04/29 03:55:27;;;;;;;;;2.67;2.67;;;;;18.44;71.33;100200.00;5056785;28;45500;-74
2023/04/29 03:57:52;;;;;;;;;2.67;2.67;;;;;18.53;71.22;100215.81;5055363;28;45729;-71
2023/04/29 04:00:18;;;;;;;;;2.67;2.67;;;;;18.43;71.15;100211.47;5056745;27;45236;-72
2023/04/29 04:02:43;;;;;;;;;1.67;1.67;;;;;18.37;71.51;100201.81;5057198;28;45220;-71
2023/04/29 04:05:09;;;;;;;;;1.67;1.67;;;;;18.41;70.97;100205.31;5055575;28;48093;-77
2023/04/29 04:07:35;;;;;;;;;2.67;1.67;;;;;18.45;70.86;100213.22;5056733;28;45343;-78
2023/04/29 04:10:01;;;;;;;;;3.00;2.33;;;;;18.43;70.78;100207.06;5061039;28;45525;-75
2023/04/29 04:12:26;;;;;;;;;1.67;1.67;;;;;18.44;70.67;100208.81;5091679;27;45498;-77
2023/04/29 04:14:52;;;;;;;;;2.33;2.33;;;;;18.44;70.30;100197.34;5076001;28;45709;-78
2023/04/29 04:17:18;;;;;;;;;1.33;0.67;;;;;18.42;70.05;100197.38;5076029;27;45266;-78
2023/04/29 04:19:43;;;;;;;;;1.00;1.00;;;;;18.54;70.29;100232.53;5075918;28;45655;-76
2023/04/29 04:22:10;;;;;;;;;1.67;1.67;;;;;18.53;70.06;100226.38;5076708;27;45523;-76
2023/04/29 04:24:36;;;;;;;;;1.67;1.67;;;;;18.44;70.07;100208.81;5076143;28;45482;-77
2023/04/29 04:27:01;;;;;;;;;3.00;2.67;;;;;18.54;70.00;100227.25;5078854;28;45603;-78
2023/04/29 04:29:27;;;;;;;;;2.00;1.33;;;;;18.50;70.15;100226.38;5079751;27;45580;-77
2023/04/29 04:31:52;;;;;;;;;2.00;1.00;;;;;18.55;69.97;100237.81;5079783;28;45555;-78
2023/04/29 04:34:18;;;;;;;;;1.67;0.67;;;;;18.47;70.20;100235.25;5079397;28;46175;-77
2023/04/29 04:36:44;;;;;;;;;2.00;1.33;;;;;18.59;70.02;100262.50;5079640;27;45409;-71
2023/04/29 04:39:10;;;;;;;;;0.67;0.67;;;;;18.57;69.92;100262.50;5079903;28;45475;-77
2023/04/29 04:41:35;;;;;;;;;1.00;1.00;;;;;18.57;69.95;100254.56;5078198;28;45406;-77
2023/04/29 04:44:01;;;;;;;;;0.33;0.00;;;;;18.07;69.80;100164.13;5079261;28;45471;-77
2023/04/29 04:46:27;;;;;;;;;0.67;0.67;;;;;18.57;69.83;100248.41;5079295;28;45418;-77
2023/04/29 04:48:52;;;;;;;;;1.00;0.67;;;;;18.45;70.01;100234.38;5078788;27;45506;-76
2023/04/29 04:51:18;;;;;;;;;1.67;1.67;;;;;18.42;70.06;100238.81;5079344;27;45209;-78
2023/04/29 04:53:44;;;;;;;;;0.67;0.67;;;;;18.56;70.27;100265.16;5079511;28;45322;-77
2023/04/29 04:56:09;;;;;;;;;1.33;0.67;;;;;18.53;70.08;100258.13;5077543;28;45369;-77
2023/04/29 04:58:35;;;;;;;;;1.00;0.67;;;;;18.40;70.26;100238.84;5079550;28;45420;-79
2023/04/29 05:01:00;;;;;;;;;1.67;0.67;;;;;18.43;69.77;100257.31;5080028;28;45391;-76
2023/04/29 05:03:26;;;;;;;;;0.33;0.00;;;;;18.49;70.52;100275.78;5079637;28;45347;-79
2023/04/29 05:05:57;;;;;;;;;1.33;0.67;;;;;18.46;70.46;100282.84;5079752;28;45508;-79
2023/04/29 05:08:23;;;;;;;;;0.67;0.67;;;;;18.42;70.51;100271.44;5095407;27;45452;-77
2023/04/29 05:10:49;;;;;;;;;0.67;0.67;;;;;18.53;70.30;100278.41;5079559;28;45441;-77
2023/04/29 05:13:14;;;;;;;;;0.67;0.67;;;;;18.53;70.05;100284.56;5078342;28;47152;-78
2023/04/29 05:15:40;;;;;;;;;1.33;0.67;;;;;18.51;70.18;100290.78;5079643;28;45283;-78
2023/04/29 05:18:05;;;;;;;;;1.67;1.33;;;;;18.37;70.18;100273.22;5079557;28;45511;-78
2023/04/29 05:20:31;;;;;;;;;1.67;1.00;;;;;18.54;70.14;100296.91;5079810;28;45258;-78
2023/04/29 05:22:56;;;;;;;;;0.67;0.67;;;;;18.54;69.87;100296.91;5079484;28;45538;-78
2023/04/29 05:25:22;;;;;;;;;0.67;0.67;;;;;18.52;70.00;100292.50;5079440;28;45409;-78
2023/04/29 05:27:47;;;;;;;;;1.67;1.33;;;;;18.56;69.95;100299.53;5079370;28;45491;-71
2023/04/29 05:30:13;;;;;;;;;1.33;1.33;;;;;18.58;69.93;100314.53;5079761;28;45429;-78
2023/04/29 05:32:39;;;;;;;;;1.67;1.67;;;;;18.51;70.38;100307.53;5079038;28;46182;-78
2023/04/29 05:35:05;;;;;;;;;1.00;0.33;;;;;18.53;70.35;100311.03;5079324;28;45492;-78
2023/04/29 05:37:31;;;;;;;;;3.00;1.67;;;;;18.42;70.56;100300.53;5079061;28;45516;-78
2023/04/29 05:39:57;;;;;;;;;0.33;0.33;;;;;18.49;70.63;100310.16;5079313;28;45425;-77
2023/04/29 05:42:23;;;;;;;;;1.33;1.33;;;;;18.48;70.99;100304.88;5079206;28;45252;-74
2023/04/29 05:44:49;;;;;;;;;0.00;0.00;;;;;18.56;69.99;100318.06;5079287;28;45476;-71
2023/04/29 05:47:15;;;;;;;;;0.67;0.00;;;;;18.54;70.27;100317.19;5079353;27;45223;-77
2023/04/29 05:49:40;;;;;;;;;0.67;0.00;;;;;18.49;69.79;100309.28;5079213;28;45531;-76
2023/04/29 05:52:06;;;;;;;;;0.00;0.00;;;;;18.57;69.66;100322.47;5078958;28;46559;-73
2023/04/29 05:54:34;;;;;;;;;0.33;0.33;;;;;18.45;69.87;100313.72;5078960;28;45484;-77
2023/04/29 05:57:01;;;;;;;;;0.67;0.00;;;;;18.45;70.01;100318.13;5079021;28;45321;-76
2023/04/29 05:59:32;;;;;;;;;0.00;0.00;;;;;18.46;69.84;100311.94;5078718;28;45441;-77
2023/04/29 06:01:59;;;;;;;;;0.00;0.00;;;;;18.59;69.58;100326.84;5078320;28;46233;-75
2023/04/29 06:04:25;;;;;;;;;0.00;0.00;;;;;18.53;69.29;100310.16;5078089;28;45409;-77
2023/04/29 06:06:55;;;;;;;;;0.00;0.00;;;;;18.61;69.40;100332.16;5077711;28;45826;-75
2023/04/29 06:09:22;;;;;;;;;0.00;0.00;;;;;18.54;69.35;100317.19;5077817;27;45453;-73
2023/04/29 06:11:47;;;;;;;;;0.00;0.00;;;;;18.50;69.47;100311.03;5077874;28;46085;-77
2023/04/29 06:14:13;;;;;;;;;0.00;0.00;;;;;18.56;69.29;100323.34;5077629;28;45458;-77
2023/04/29 06:16:39;;;;;;;;;0.00;0.00;;;;;18.64;69.50;100350.63;5077828;28;45495;-76
2023/04/29 06:19:04;;;;;;;;;0.00;0.00;;;;;18.63;69.14;100344.47;5077741;27;45412;-78
2023/04/29 06:21:30;;;;;;;;;0.00;0.00;;;;;18.57;69.32;100335.72;5076105;28;46180;-74
2023/04/29 06:23:56;;;;;;;;;0.67;0.67;;;;;18.60;69.29;100335.66;5078228;28;45746;-72
2023/04/29 06:26:22;;;;;;;;;2.00;2.00;;;;;18.56;69.28;100341.88;5078423;28;45446;-74
2023/04/29 06:28:48;;;;;;;;;1.33;1.33;;;;;18.59;69.17;100347.16;5078428;28;45223;-70
2023/04/29 06:31:14;;;;;;;;;0.67;0.67;;;;;18.60;69.15;100341.88;5076776;28;45457;-71
2023/04/29 06:33:40;;;;;;;;;0.67;0.33;;;;;18.61;69.34;100340.09;5078279;28;45322;-77
2023/04/29 06:36:06;;;;;;;;;0.00;0.00;;;;;18.62;69.28;100340.09;5078205;28;45400;-76
2023/04/29 06:38:32;;;;;;;;;0.00;0.00;;;;;18.70;69.26;100345.28;5078351;28;45501;-77
2023/04/29 06:40:59;;;;;;;;;0.67;0.67;;;;;18.59;69.11;100329.50;5077844;28;46383;-75
2023/04/29 06:43:27;;;;;;;;;0.00;0.00;;;;;18.69;68.94;100348.84;5076614;28;45591;-72
2023/04/29 06:45:53;;;;;;;;;0.00;0.00;;;;;18.70;69.07;100350.59;5077008;28;45360;-77
2023/04/29 06:48:18;;;;;;;;;4.00;4.00;;;;;18.67;69.23;100348.84;5077015;28;45241;-77
2023/04/29 06:50:55;;;;;;;;;2.00;1.67;;;;;18.73;69.80;100363.81;5077097;27;45421;-76
2023/04/29 06:53:22;;;;;;;;;1.00;1.00;;;;;18.67;69.74;100345.34;5075498;28;45561;-73
2023/04/29 06:55:48;;;;;;;;;0.00;0.00;;;;;18.74;68.96;100365.59;5078134;28;45443;-78
2023/04/29 06:58:15;;;;;;;;;3.00;3.00;;;;;18.75;69.43;100374.41;5078053;28;45503;-78
2023/04/29 07:00:44;;;;;;;;;2.00;2.00;;;;;18.63;68.89;100348.88;5077369;28;46240;-77
2023/04/29 07:03:10;;;;;;;;;1.67;1.67;;;;;18.58;69.03;100330.41;5077784;27;45530;-79
2023/04/29 07:05:38;;;;;;;;;1.00;1.00;;;;;18.83;68.49;100360.25;5077627;27;45330;-80
2023/04/29 07:08:04;;;;;;;;;15.33;15.33;;;;;18.84;68.93;100356.72;5078075;28;45367;-80
2023/04/29 07:10:29;;;;;;;;;8.33;7.67;;;;;18.86;68.76;100352.31;5077311;27;46290;-82
2023/04/29 07:12:55;;;;;;;;;2.00;1.33;;;;;18.92;68.92;100356.69;5077201;28;45475;-82
2023/04/29 07:15:21;;;;;;;;;1.00;1.00;;;;;18.97;68.60;100354.84;5077651;27;45304;-80
2023/04/29 07:17:47;;;;;;;;;0.00;0.00;;;;;18.93;68.09;100329.31;5075655;28;45365;-81
2023/04/29 07:20:13;;;;;;;;;0.00;0.00;;;;;19.05;67.98;100347.72;5076489;28;45670;-80
2023/04/29 07:22:38;;;;;;;;;0.00;0.00;;;;;19.21;67.73;100358.19;5073555;28;45322;-80
2023/04/29 07:25:04;;;;;;;;;0.00;0.00;;;;;19.22;67.38;100334.38;5076957;27;45475;-86
2023/04/29 07:27:32;;;;;;;;;1.00;1.00;;;;;19.26;67.40;100322.84;5077271;27;45223;-85
2023/04/29 07:30:00;;;;;;;;;2.00;2.00;;;;;19.31;67.04;100324.56;5076982;28;46208;-82
2023/04/29 07:32:26;;;;;;;;;0.00;0.00;;;;;19.45;66.46;100346.50;5077925;27;45363;-89
2023/04/29 07:34:51;;;;;;;;;2.67;2.67;;;;;19.45;66.13;100346.50;5092932;27;45273;-80
2023/04/29 07:37:17;;;;;;;;;0.00;0.00;;;;;19.53;66.25;100362.31;5075761;28;45423;-73
2023/04/29 07:39:43;;;;;;;;;0.00;0.00;;;;;19.46;66.42;100349.16;5098318;27;47756;-77
2023/04/29 07:42:09;;;;;;;;;0.00;0.00;;;;;19.59;66.26;100370.22;5077611;27;45826;-84
2023/04/29 07:44:35;;;;;;;;;0.00;0.00;;;;;19.52;66.11;100364.09;5075489;28;45452;-81
2023/04/29 07:47:02;;;;;;;;;0.00;0.00;;;;;19.57;66.23;100372.88;5076891;27;45428;-80
2023/04/29 07:49:29;;;;;;;;;5.00;5.00;;;;;19.51;66.15;100372.94;5084592;27;45785;-75
2023/04/29 07:51:55;;;;;;;;;0.00;0.00;;;;;19.57;66.43;100374.66;5075809;28;45442;-78
2023/04/29 07:54:22;;;;;;;;;1.00;1.00;;;;;19.69;65.92;100385.13;5077176;27;45239;-80
2023/04/29 07:56:48;;;;;;;;;3.00;3.00;;;;;19.61;65.44;100364.00;5076265;27;45472;-80
2023/04/29 07:59:14;;;;;;;;;0.00;0.00;;;;;19.64;65.19;100384.31;5076585;27;46340;-77
2023/04/29 08:01:40;;;;;;;;;2.00;1.00;;;;;19.50;65.57;100370.28;5080410;28;45271;-73
2023/04/29 08:04:06;;;;;;;;;0.00;0.00;;;;;19.71;65.39;100395.72;5096470;27;45480;-80
2023/04/29 08:06:32;;;;;;;;;0.00;0.00;;;;;19.61;65.70;100379.91;5079226;28;45627;-81
2023/04/29 08:08:58;;;;;;;;;0.00;0.00;;;;;19.64;65.53;100390.47;5078872;27;45622;-75
2023/04/29 08:11:25;;;;;;;;;0.00;0.00;;;;;19.71;65.28;100401.91;5087084;27;45259;-85
2023/04/29 08:13:50;;;;;;;;;0.00;0.00;;;;;19.68;65.27;100400.16;5079860;27;45701;-80
2023/04/29 08:16:16;;;;;;;;;0.00;0.00;;;;;19.66;65.13;100396.66;5080087;27;45431;-78
2023/04/29 08:18:42;;;;;;;;;1.00;1.00;;;;;19.63;65.35;100401.97;5077882;28;46508;-84
2023/04/29 08:21:10;;;;;;;;;0.00;0.00;;;;;19.68;65.30;100413.41;5082448;27;45392;-81
2023/04/29 08:23:38;;;;;;;;;1.00;1.00;;;;;19.67;65.39;100406.34;5082954;28;45408;-84
2023/04/29 08:26:04;;;;;;;;;1.00;1.00;;;;;19.75;64.97;100421.31;5064745;28;45401;-82
2023/04/29 08:28:31;;;;;;;;;0.33;0.33;;;;;19.71;65.34;100416.91;5078608;28;46634;-83
2023/04/29 08:30:57;;;;;;;;;1.00;0.33;;;;;19.71;64.76;100411.63;5078446;28;45496;-80
2023/04/29 08:33:23;;;;;;;;;0.00;0.00;;;;;19.50;65.21;100392.38;5068062;28;45488;-76
2023/04/29 08:35:56;;;;;;;;;0.33;0.33;;;;;19.59;65.22;100415.25;5049194;28;45769;-76
2023/04/29 08:38:22;;;;;;;;;1.00;0.67;;;;;19.62;65.36;100412.59;5068061;28;47840;-76
2023/04/29 08:40:47;;;;;;;;;4.00;3.00;;;;;19.60;65.51;100402.00;5067711;28;45648;-74
2023/04/29 08:43:16;;;;;;;;;1.67;1.33;;;;;19.68;65.00;100405.47;5052610;28;45435;-75
2023/04/29 08:45:42;;;;;;;;;34.75;32.50;;;;;19.72;65.10;100409.00;5023870;28;45568;-77
2023/04/29 08:48:09;;;;;;;;;1.00;1.00;;;;;19.91;65.12;100425.56;5020319;28;47086;-78
2023/04/29 08:50:39;;;;;;;;;1.00;1.00;;;;;19.76;64.92;100378.03;5019915;28;45328;-76
2023/04/29 08:53:12;;;;;;;;;1.00;1.00;;;;;19.98;64.54;100408.72;5049390;28;45423;-77
2023/04/29 08:55:43;;;;;;;;;1.33;1.33;;;;;20.12;64.51;100424.47;5059459;28;45225;-75
2023/04/29 08:58:14;;;;;;;;;2.67;2.67;;;;;20.21;64.07;100423.47;5040933;28;46506;-84
2023/04/29 09:00:41;;;;;;;;;1.33;1.00;;;;;20.19;63.95;100414.66;5040583;28;45311;-85
2023/04/29 09:03:28;;;;;;;;;1.00;1.00;;;;;20.27;64.21;100423.41;5040303;28;45511;-83
2023/04/29 09:05:56;;;;;;;;;0.00;0.00;;;;;20.31;63.82;100426.91;5058170;28;45540;-82
2023/04/29 09:08:23;;;;;;;;;1.00;1.00;;;;;20.32;63.97;100426.91;5040691;28;46541;-76
2023/04/29 09:10:51;;;;;;;;;0.33;0.33;;;;;20.21;63.74;100400.50;5058729;28;45296;-85
2023/04/29 09:13:27;;;;;;;;;1.00;1.00;;;;;20.49;64.15;100431.97;5058837;28;45458;-81
2023/04/29 09:15:53;;;;;;;;;0.67;0.67;;;;;20.39;64.01;100406.47;5058655;28;45410;-80
2023/04/29 09:18:41;;;;;;;;;1.33;1.33;;;;;20.64;63.70;100437.13;5058488;28;46566;-87
2023/04/29 09:21:27;;;;;;;;;1.00;1.00;;;;;20.69;63.56;100436.19;5058961;28;45298;-85
2023/04/29 09:23:55;;;;;;;;;0.00;0.00;;;;;20.61;63.04;100412.41;5040465;28;45486;-82
2023/04/29 09:26:22;;;;;;;;;0.00;0.00;;;;;20.70;62.81;100430.00;5059027;28;45301;-82
2023/04/29 09:29:14;;;;;;;;;0.67;0.00;;;;;20.62;63.26;100441.59;5058660;28;45735;-77
2023/04/29 09:31:41;;;;;;;;;0.33;0.33;;;;;20.62;63.18;100443.38;5051218;28;45492;-79
2023/04/29 09:34:07;;;;;;;;;2.00;1.67;;;;;20.48;63.13;100434.69;5078082;28;45483;-85
2023/04/29 09:36:44;;;;;;;;;1.00;1.00;;;;;20.31;63.42;100427.78;5079437;28;45591;-84
2023/04/29 09:39:19;;;;;;;;;1.00;1.00;;;;;20.30;63.85;100443.75;5088771;27;46820;-77
2023/04/29 09:41:54;;;;;;;;;0.00;0.00;;;;;20.25;64.13;100449.97;5079609;27;45408;-83
2023/04/29 09:44:24;;;;;;;;;2.00;2.00;;;;;20.24;64.23;100461.47;5077324;28;45314;-80
2023/04/29 09:47:09;;;;;;;;;2.00;1.00;;;;;20.01;64.11;100437.84;5092659;27;45361;-78
2023/04/29 09:49:44;;;;;;;;;1.00;1.00;;;;;20.12;64.21;100456.31;5077174;27;46187;-79
2023/04/29 09:52:19;;;;;;;;;1.00;1.00;;;;;20.03;64.50;100456.38;5072426;28;45864;-81
2023/04/29 09:54:46;;;;;;;;;1.00;1.00;;;;;19.99;64.68;100468.78;5081454;28;45340;-85
2023/04/29 09:57:14;;;;;;;;;3.00;1.00;;;;;19.95;65.18;100459.13;5096684;27;45543;-85
2023/04/29 09:59:41;;;;;;;;;2.00;2.00;;;;;19.95;65.14;100463.53;5077471;28;45615;-82
2023/04/29 10:02:19;;;;;;;;;4.00;1.33;;;;;19.88;65.38;100467.16;5078307;28;45234;-84
2023/04/29 10:04:47;;;;;;;;;2.33;2.00;;;;;19.66;65.47;100454.06;5094688;27;45483;-85
2023/04/29 10:07:19;;;;;;;;;4.67;2.67;;;;;19.57;65.44;100436.47;5078547;27;45482;-78
2023/04/29 10:09:47;;;;;;;;;2.00;1.33;;;;;19.30;65.36;100384.63;5078779;27;46070;-77
2023/04/29 10:12:19;;;;;;;;;3.33;3.00;;;;;19.78;65.58;100479.63;5099389;27;45354;-91
2023/04/29 10:15:35;;;;;;;;;4.00;3.67;;;;;19.72;66.59;100471.72;5103822;27;45446;-78
2023/04/29 10:18:21;;;;;;;;;3.67;2.00;;;;;19.61;66.80;100469.13;5074717;28;45642;-79
2023/04/29 10:20:49;;;;;;;;;3.00;2.33;;;;;19.65;66.23;100460.25;5076220;28;47075;-77
2023/04/29 10:23:16;;;;;;;;;1.00;1.00;;;;;19.67;66.09;100458.47;5076099;27;45458;-78
2023/04/29 10:25:43;;;;;;;;;3.00;3.00;;;;;19.74;66.01;100459.34;5073661;28;45311;-79
2023/04/29 10:28:15;;;;;;;;;4.00;3.00;;;;;19.66;65.96;100462.91;5077532;27;45410;-80
2023/04/29 10:30:49;;;;;;;;;3.00;1.33;;;;;19.78;66.57;100469.03;5074655;28;45531;-81
2023/04/29 10:33:16;;;;;;;;;4.00;3.00;;;;;19.81;65.94;100469.84;5076766;28;45409;-84
2023/04/29 10:35:46;;;;;;;;;2.00;2.00;;;;;19.90;66.04;100481.28;5074787;28;45299;-78
2023/04/29 10:38:23;;;;;;;;;3.00;2.33;;;;;19.88;65.67;100457.44;5076799;27;45453;-85
2023/04/29 10:40:52;;;;;;;;;1.00;1.00;;;;;20.10;65.16;100484.63;5055903;28;47967;-85
2023/04/29 10:43:25;;;;;;;;;3.00;2.00;;;;;20.17;65.49;100486.28;5056946;28;45701;-86
2023/04/29 10:46:17;;;;;;;;;1.33;1.33;;;;;20.23;65.98;100491.56;5060678;28;45456;-83
2023/04/29 10:48:43;;;;;;;;;2.00;2.00;;;;;20.16;66.07;100483.69;5078055;28;45333;-84
2023/04/29 10:51:09;;;;;;;;;3.00;2.00;;;;;20.18;66.51;100503.09;5077239;27;46784;-81
2023/04/29 10:53:35;;;;;;;;;2.00;2.00;;;;;20.17;66.81;100498.69;5076979;27;45390;-79
2023/04/29 10:56:08;;;;;;;;;3.33;3.00;;;;;20.13;67.17;100494.31;5077525;28;45342;-84
2023/04/29 10:58:40;;;;;;;;;3.00;3.00;;;;;20.12;67.18;100477.53;5078895;27;45391;-80
2023/04/29 11:01:10;;;;;;;;;2.67;2.00;;;;;20.17;67.24;100502.19;5077042;28;46479;-81
2023/04/29 11:03:53;;;;;;;;;4.33;4.33;;;;;20.14;67.24;100490.78;5076487;28;45835;-83
2023/04/29 11:06:22;;;;;;;;;2.00;2.00;;;;;20.13;67.01;100499.59;5078026;27;45754;-76
2023/04/29 11:08:59;;;;;;;;;3.33;2.00;;;;;20.12;67.22;100501.38;5079415;27;45417;-80
2023/04/29 11:11:25;;;;;;;;;4.00;4.00;;;;;20.03;67.21;100477.59;5093911;27;46384;-76
2023/04/29 11:13:51;;;;;;;;;2.67;2.00;;;;;20.04;67.19;100482.03;5075865;28;45242;-81
2023/04/29 11:16:28;;;;;;;;;3.00;3.00;;;;;20.03;67.48;100464.34;5074194;28;45425;-78
2023/04/29 11:19:07;;;;;;;;;1.67;1.67;;;;;20.08;66.81;100493.50;5074527;28;45618;-82
2023/04/29 11:21:39;;;;;;;;;2.00;2.00;;;;;19.96;67.78;100491.84;5076679;27;46526;-83
2023/04/29 11:24:06;;;;;;;;;5.00;4.67;;;;;19.75;68.17;100482.28;5076974;28;45394;-76
2023/04/29 11:26:33;;;;;;;;;2.00;1.33;;;;;19.65;68.20;100466.41;5077213;28;45270;-75
2023/04/29 11:28:59;;;;;;;;;3.00;2.00;;;;;19.74;68.50;100496.44;5076586;27;45625;-83